createdAt,value
2022-09-12T00:00:06.169Z,7.60
2022-09-12T00:02:34.017Z,7.50
2022-09-12T00:05:03.425Z,7.97
2022-09-12T00:07:31.271Z,8.13
2022-09-12T00:09:59.128Z,9.07
2022-09-12T00:12:27.156Z,8.77
2022-09-12T00:14:55.006Z,8.80
2022-09-12T00:17:22.841Z,8.17
2022-09-12T00:19:50.751Z,8.73
2022-09-12T00:22:20.001Z,8.67
2022-09-12T00:24:47.845Z,8.83
2022-09-12T00:27:15.696Z,8.90
2022-09-12T00:29:43.579Z,8.87
2022-09-12T00:32:11.484Z,8.70
2022-09-12T00:34:39.453Z,8.37
2022-09-12T00:37:07.375Z,8.47
2022-09-12T00:39:36.761Z,7.70
2022-09-12T00:42:05.040Z,8.23
2022-09-12T00:44:52.013Z,7.90
2022-09-12T00:47:26.529Z,7.43
2022-09-12T00:50:02.389Z,7.77
2022-09-12T00:52:35.413Z,7.60
2022-09-12T00:55:08.944Z,7.00
2022-09-12T00:57:41.705Z,6.50
2022-09-12T01:00:16.116Z,6.93
2022-09-12T01:02:46.757Z,6.67
2022-09-12T01:05:15.224Z,7.10
2022-09-12T01:07:44.647Z,6.60
2022-09-12T01:10:13.931Z,6.60
2022-09-12T01:12:43.966Z,6.87
2022-09-12T01:15:12.577Z,7.07
2022-09-12T01:17:52.049Z,7.17
2022-09-12T01:20:58.040Z,6.67
2022-09-12T01:24:10.557Z,7.23
2022-09-12T01:27:18.643Z,6.60
2022-09-12T01:30:05.077Z,6.33
2022-09-12T01:32:48.024Z,6.07
2022-09-12T01:35:24.713Z,6.70
2022-09-12T01:38:05.611Z,6.53
2022-09-12T01:40:41.588Z,6.33
2022-09-12T01:43:20.653Z,6.37
2022-09-12T01:45:57.266Z,6.80
2022-09-12T01:48:31.192Z,6.20
2022-09-12T01:51:06.129Z,6.47
2022-09-12T01:53:39.276Z,7.43
2022-09-12T01:56:11.493Z,6.33
2022-09-12T01:58:45.422Z,6.37
2022-09-12T02:01:18.814Z,5.93
2022-09-12T02:03:57.232Z,5.80
2022-09-12T02:06:28.607Z,6.03
2022-09-12T02:09:00.656Z,6.00
2022-09-12T02:11:32.291Z,5.57
2022-09-12T02:14:05.557Z,6.30
2022-09-12T02:16:36.949Z,5.97
2022-09-12T02:19:13.706Z,6.50
2022-09-12T02:21:49.212Z,6.60
2022-09-12T02:24:18.498Z,6.23
2022-09-12T02:26:50.889Z,5.60
2022-09-12T02:29:18.945Z,5.90
2022-09-12T02:31:49.119Z,6.33
2022-09-12T02:34:28.927Z,6.97
2022-09-12T02:37:04.061Z,6.80
2022-09-12T02:39:31.986Z,6.70
2022-09-12T02:42:02.959Z,7.10
2022-09-12T02:44:32.900Z,6.43
2022-09-12T02:47:05.919Z,6.87
2022-09-12T02:49:35.397Z,6.13
2022-09-12T02:52:04.189Z,6.70
2022-09-12T02:54:32.463Z,6.70
2022-09-12T02:57:00.335Z,6.40
2022-09-12T02:59:29.107Z,6.67
2022-09-12T03:02:13.419Z,6.03
2022-09-12T03:05:08.579Z,6.13
2022-09-12T03:07:51.776Z,6.70
2022-09-12T03:10:29.332Z,6.07
2022-09-12T03:13:07.496Z,6.27
2022-09-12T03:15:44.871Z,6.37
2022-09-12T03:18:27.647Z,6.40
2022-09-12T03:21:04.184Z,6.47
2022-09-12T03:23:38.559Z,5.90
2022-09-12T03:26:13.879Z,6.60
2022-09-12T03:28:43.534Z,6.90
2022-09-12T03:31:16.113Z,7.20
2022-09-12T03:33:44.491Z,7.27
2022-09-12T03:36:18.436Z,7.77
2022-09-12T03:38:46.518Z,7.63
2022-09-12T03:41:14.525Z,7.40
2022-09-12T03:43:42.823Z,7.77
2022-09-12T03:46:10.760Z,8.40
2022-09-12T03:48:38.633Z,7.80
2022-09-12T03:51:08.660Z,8.00
2022-09-12T03:53:38.142Z,7.30
2022-09-12T03:56:08.616Z,7.60
2022-09-12T03:58:37.335Z,8.00
2022-09-12T04:01:12.299Z,8.90
2022-09-12T04:03:41.109Z,7.80
2022-09-12T04:06:10.331Z,7.83
2022-09-12T04:08:40.148Z,8.27
2022-09-12T04:11:11.079Z,7.93
2022-09-12T04:13:40.036Z,8.53
2022-09-12T04:16:08.586Z,8.60
2022-09-12T04:18:36.969Z,8.90
2022-09-12T04:21:06.288Z,8.07
2022-09-12T04:23:34.648Z,8.33
2022-09-12T04:26:06.508Z,7.80
2022-09-12T04:28:35.854Z,7.60
2022-09-12T04:31:06.089Z,7.07
2022-09-12T04:33:34.055Z,7.40
2022-09-12T04:36:06.870Z,7.30
2022-09-12T04:38:35.677Z,6.80
2022-09-12T04:41:11.722Z,7.20
2022-09-12T04:43:39.613Z,7.00
2022-09-12T04:46:08.523Z,9.80
2022-09-12T04:48:36.804Z,8.90
2022-09-12T04:51:09.025Z,8.10
2022-09-12T04:53:37.026Z,7.67
2022-09-12T04:56:08.367Z,6.60
2022-09-12T04:58:36.917Z,7.37
2022-09-12T05:01:06.440Z,6.73
2022-09-12T05:03:34.723Z,6.70
2022-09-12T05:06:03.847Z,5.97
2022-09-12T05:08:31.897Z,6.70
2022-09-12T05:11:03.808Z,6.50
2022-09-12T05:13:34.055Z,6.63
2022-09-12T05:16:03.677Z,6.70
2022-09-12T05:18:33.384Z,5.80
2022-09-12T05:21:02.435Z,6.20
2022-09-12T05:23:30.535Z,6.10
2022-09-12T05:25:59.991Z,6.07
2022-09-12T05:28:33.558Z,6.27
2022-09-12T05:31:02.980Z,6.67
2022-09-12T05:33:31.229Z,6.73
2022-09-12T05:35:59.147Z,7.00
2022-09-12T05:38:29.029Z,6.83
2022-09-12T05:41:04.725Z,6.50
2022-09-12T05:43:34.165Z,7.50
2022-09-12T05:46:03.498Z,7.30
2022-09-12T05:48:31.555Z,7.10
2022-09-12T05:51:03.835Z,6.50
2022-09-12T05:53:32.461Z,7.50
2022-09-12T05:56:08.335Z,7.50
2022-09-12T05:58:39.888Z,8.05
2022-09-12T06:01:11.442Z,6.05
2022-09-12T06:03:43.301Z,7.03
2022-09-12T06:06:13.697Z,6.35
2022-09-12T06:08:43.251Z,6.40
2022-09-12T06:11:13.487Z,6.60
2022-09-12T06:13:43.913Z,6.28
2022-09-12T06:16:14.238Z,6.07
2022-09-12T06:18:42.936Z,6.57
2022-09-12T06:21:12.856Z,6.00
2022-09-12T06:23:41.702Z,6.00
2022-09-12T06:26:11.671Z,6.47
2022-09-12T06:28:41.855Z,5.90
2022-09-12T06:31:13.208Z,5.90
2022-09-12T06:33:43.129Z,5.90
2022-09-12T06:36:13.423Z,6.00
2022-09-12T06:38:41.778Z,5.80
2022-09-12T06:41:12.490Z,5.88
2022-09-12T06:43:41.171Z,5.93
2022-09-12T06:46:09.718Z,6.25
2022-09-12T06:48:41.950Z,6.10
2022-09-12T06:51:13.460Z,6.55
2022-09-12T06:53:42.283Z,7.45
2022-09-12T06:56:12.322Z,7.45
2022-09-12T06:58:41.029Z,6.60
2022-09-12T07:01:11.004Z,7.07
2022-09-12T07:03:40.916Z,6.72
2022-09-12T07:06:11.032Z,6.70
2022-09-12T07:08:41.035Z,6.53
2022-09-12T07:11:15.154Z,6.40
2022-09-12T07:13:44.829Z,6.22
2022-09-12T07:16:18.676Z,5.80
2022-09-12T07:18:51.893Z,6.50
2022-09-12T07:21:20.583Z,6.25
2022-09-12T07:23:49.160Z,5.70
2022-09-12T07:26:18.044Z,5.65
2022-09-12T07:28:46.239Z,5.85
2022-09-12T07:31:16.336Z,5.68
2022-09-12T07:33:45.125Z,5.45
2022-09-12T07:36:16.501Z,5.32
2022-09-12T07:38:45.879Z,5.95
2022-09-12T07:41:14.682Z,5.55
2022-09-12T07:43:42.996Z,5.78
2022-09-12T07:46:11.518Z,5.97
2022-09-12T07:48:40.976Z,6.40
2022-09-12T07:51:11.668Z,6.18
2022-09-12T07:53:43.349Z,6.00
2022-09-12T07:56:12.919Z,6.35
2022-09-12T07:58:43.260Z,5.95
2022-09-12T08:01:14.674Z,6.18
2022-09-12T08:03:44.176Z,5.80
2022-09-12T08:06:15.051Z,6.25
2022-09-12T08:08:44.432Z,6.10
2022-09-12T08:11:14.821Z,5.80
2022-09-12T08:13:43.863Z,6.03
2022-09-12T08:16:14.153Z,5.50
2022-09-12T08:18:42.691Z,5.38
2022-09-12T08:21:14.553Z,6.07
2022-09-12T08:23:42.561Z,5.70
2022-09-12T08:26:13.262Z,5.65
2022-09-12T08:28:41.791Z,5.30
2022-09-12T08:31:12.523Z,5.32
2022-09-12T08:33:40.929Z,6.60
2022-09-12T08:36:11.883Z,5.63
2022-09-12T08:38:41.698Z,5.50
2022-09-12T08:41:20.115Z,5.28
2022-09-12T08:44:00.707Z,5.53
2022-09-12T08:46:36.440Z,5.10
2022-09-12T08:49:06.733Z,6.38
2022-09-12T08:51:36.912Z,5.38
2022-09-12T08:54:10.983Z,4.82
2022-09-12T08:56:40.490Z,4.57
2022-09-12T08:59:10.099Z,5.07
2022-09-12T09:01:43.743Z,4.53
2022-09-12T09:04:26.909Z,4.93
2022-09-12T09:07:16.216Z,4.75
2022-09-12T09:09:59.665Z,5.50
2022-09-12T09:12:41.625Z,5.28
2022-09-12T09:15:24.844Z,5.30
2022-09-12T09:17:56.073Z,5.13
2022-09-12T09:20:31.312Z,5.50
2022-09-12T09:23:04.578Z,5.43
2022-09-12T09:25:43.998Z,5.45
2022-09-12T09:28:18.530Z,5.45
2022-09-12T09:30:47.641Z,5.57
2022-09-12T09:33:23.450Z,5.43
2022-09-12T09:36:00.524Z,5.38
2022-09-12T09:38:41.542Z,5.80
2022-09-12T09:41:39.272Z,5.25
2022-09-12T09:44:08.955Z,5.28
2022-09-12T09:46:37.037Z,6.18
2022-09-12T09:49:07.800Z,5.50
2022-09-12T09:51:37.795Z,5.22
2022-09-12T09:54:18.856Z,4.88
2022-09-12T09:56:47.149Z,4.95
2022-09-12T09:59:19.202Z,5.30
2022-09-12T10:01:49.759Z,5.28
2022-09-12T10:04:22.450Z,5.38
2022-09-12T10:06:54.381Z,5.90
2022-09-12T10:09:27.816Z,4.28
2022-09-12T10:11:56.676Z,4.95
2022-09-12T10:14:35.099Z,4.80
2022-09-12T10:17:22.778Z,5.32
2022-09-12T10:20:04.846Z,4.97
2022-09-12T10:22:39.643Z,5.00
2022-09-12T10:25:13.464Z,5.60
2022-09-12T10:27:43.048Z,6.13
2022-09-12T10:30:21.747Z,5.40
2022-09-12T10:32:51.813Z,6.00
2022-09-12T10:35:22.207Z,6.43
2022-09-12T10:37:56.706Z,6.63
2022-09-12T10:40:27.518Z,6.32
2022-09-12T10:42:57.456Z,6.03
2022-09-12T10:45:30.131Z,6.03
2022-09-12T10:48:03.060Z,5.63
2022-09-12T10:50:37.600Z,5.50
2022-09-12T10:53:20.349Z,5.20
2022-09-12T10:56:02.944Z,7.20
2022-09-12T10:59:11.867Z,4.97
2022-09-12T11:01:47.175Z,5.55
2022-09-12T11:04:42.522Z,5.90
2022-09-12T11:07:34.177Z,5.45
2022-09-12T11:10:10.633Z,5.40
2022-09-12T11:12:45.072Z,5.70
2022-09-12T11:15:39.512Z,5.88
2022-09-12T11:18:23.433Z,5.88
2022-09-12T11:21:15.696Z,6.03
2022-09-12T11:24:07.180Z,5.82
2022-09-12T11:26:46.067Z,5.07
2022-09-12T11:29:26.600Z,5.50
2022-09-12T11:32:11.566Z,5.68
2022-09-12T11:34:55.106Z,5.95
2022-09-12T11:37:44.824Z,6.82
2022-09-12T11:40:27.853Z,6.18
2022-09-12T11:43:00.765Z,4.82
2022-09-12T11:45:33.710Z,4.55
2022-09-12T11:48:08.663Z,4.97
2022-09-12T11:50:38.333Z,5.50
2022-09-12T11:53:16.345Z,5.40
2022-09-12T11:55:53.517Z,5.35
2022-09-12T11:58:26.798Z,5.00
2022-09-12T12:00:58.860Z,5.10
2022-09-12T12:03:32.335Z,4.90
2022-09-12T12:06:07.128Z,5.05
2022-09-12T12:08:40.723Z,5.20
2022-09-12T12:11:09.926Z,5.00
2022-09-12T12:13:43.284Z,4.60
2022-09-12T12:16:17.566Z,4.43
2022-09-12T12:18:45.865Z,4.88
2022-09-12T12:21:39.434Z,3.90
2022-09-12T12:24:20.426Z,3.67
2022-09-12T12:27:00.432Z,3.40
2022-09-12T12:29:43.862Z,3.50
2022-09-12T12:32:27.211Z,3.33
2022-09-12T12:35:40.554Z,3.80
2022-09-12T12:38:29.809Z,3.60
2022-09-12T12:41:47.697Z,3.75
2022-09-12T12:44:50.337Z,4.20
2022-09-12T12:47:21.889Z,4.95
2022-09-12T12:49:54.477Z,6.45
2022-09-12T12:52:22.961Z,4.90
2022-09-12T12:54:56.015Z,5.15
2022-09-12T12:57:42.008Z,5.00
2022-09-12T13:00:29.937Z,5.80
2022-09-12T13:03:00.234Z,5.20
2022-09-12T13:05:31.850Z,5.63
2022-09-12T13:08:07.297Z,4.65
2022-09-12T13:10:35.784Z,4.75
2022-09-12T13:13:08.761Z,5.18
2022-09-12T13:15:57.371Z,5.30
2022-09-12T13:18:28.879Z,5.40
2022-09-12T13:21:10.213Z,5.90
2022-09-12T13:23:38.292Z,5.68
2022-09-12T13:26:12.234Z,5.63
2022-09-12T13:28:41.479Z,5.60
2022-09-12T13:31:16.658Z,5.80
2022-09-12T13:33:47.939Z,4.90
2022-09-12T13:36:33.622Z,5.95
2022-09-12T13:39:15.896Z,6.20
2022-09-12T13:42:08.876Z,6.60
2022-09-12T13:44:44.346Z,6.32
2022-09-12T13:47:16.688Z,5.72
2022-09-12T13:49:46.635Z,5.97
2022-09-12T13:52:20.082Z,6.20
2022-09-12T13:54:51.664Z,5.70
2022-09-12T13:57:36.196Z,5.93
2022-09-12T14:00:08.882Z,6.93
2022-09-12T14:02:38.211Z,6.47
2022-09-12T14:05:14.837Z,7.03
2022-09-12T14:07:55.250Z,6.75
2022-09-12T14:10:30.244Z,6.30
2022-09-12T14:12:59.472Z,7.32
2022-09-12T14:15:31.428Z,6.47
2022-09-12T14:18:01.794Z,6.88
2022-09-12T14:20:32.690Z,7.37
2022-09-12T14:23:03.707Z,6.70
2022-09-12T14:25:39.075Z,6.70
2022-09-12T14:28:07.635Z,6.47
2022-09-12T14:30:39.030Z,6.43
2022-09-12T14:33:19.838Z,6.83
2022-09-12T14:35:49.913Z,7.43
2022-09-12T14:38:25.881Z,6.57
2022-09-12T14:41:00.815Z,6.57
2022-09-12T14:43:31.534Z,7.03
2022-09-12T14:46:04.630Z,6.70
2022-09-12T14:48:37.454Z,7.23
2022-09-12T14:51:06.468Z,6.90
2022-09-12T14:53:36.587Z,6.77
2022-09-12T14:56:10.141Z,6.97
2022-09-12T14:58:39.588Z,6.50
2022-09-12T15:01:25.258Z,6.63
2022-09-12T15:03:55.549Z,6.20
2022-09-12T15:06:28.633Z,7.07
2022-09-12T15:08:58.948Z,6.67
2022-09-12T15:11:27.172Z,7.10
2022-09-12T15:13:55.179Z,7.60
2022-09-12T15:16:24.442Z,6.30
2022-09-12T15:18:52.625Z,6.40
2022-09-12T15:21:22.300Z,6.60
2022-09-12T15:23:51.317Z,6.50
2022-09-12T15:26:20.848Z,6.87
2022-09-12T15:28:49.386Z,6.33
2022-09-12T15:31:26.524Z,5.67
2022-09-12T15:33:55.517Z,7.07
2022-09-12T15:36:24.847Z,5.90
2022-09-12T15:38:53.204Z,6.70
2022-09-12T15:41:23.234Z,6.37
2022-09-12T15:43:51.659Z,7.23
2022-09-12T15:46:20.359Z,6.33
2022-09-12T15:48:50.197Z,6.17
2022-09-12T15:51:20.493Z,6.50
2022-09-12T15:53:50.206Z,7.63
2022-09-12T15:56:20.087Z,10.43
2022-09-12T15:58:59.186Z,6.70
2022-09-12T16:01:29.400Z,6.93
2022-09-12T16:03:59.121Z,7.10
2022-09-12T16:06:27.925Z,7.23
2022-09-12T16:08:56.285Z,6.53
2022-09-12T16:11:26.161Z,7.40
2022-09-12T16:13:55.014Z,7.20
2022-09-12T16:16:23.057Z,7.53
2022-09-12T16:18:50.985Z,7.20
2022-09-12T16:21:20.219Z,7.43
2022-09-12T16:23:49.514Z,7.40
2022-09-12T16:26:18.362Z,6.60
2022-09-12T16:28:46.397Z,7.43
2022-09-12T16:31:15.306Z,7.60
2022-09-12T16:33:43.338Z,7.67
2022-09-12T16:36:13.145Z,8.00
2022-09-12T16:38:46.963Z,7.83
2022-09-12T16:41:15.955Z,7.70
2022-09-12T16:43:44.319Z,7.87
2022-09-12T16:46:14.261Z,7.00
2022-09-12T16:48:48.101Z,6.80
2022-09-12T16:51:21.691Z,6.83
2022-09-12T16:53:51.706Z,7.10
2022-09-12T16:56:19.997Z,6.77
2022-09-12T16:58:48.882Z,7.23
2022-09-12T17:01:18.650Z,7.53
2022-09-12T17:03:47.125Z,6.73
2022-09-12T17:06:16.744Z,7.30
2022-09-12T17:08:47.022Z,6.97
2022-09-12T17:11:18.212Z,6.60
2022-09-12T17:14:06.135Z,6.87
2022-09-12T17:16:35.523Z,8.17
2022-09-12T17:19:04.072Z,7.30
2022-09-12T17:21:32.416Z,6.97
2022-09-12T17:24:00.323Z,7.13
2022-09-12T17:26:29.583Z,7.70
2022-09-12T17:28:57.417Z,7.30
2022-09-12T17:31:25.473Z,6.97
2022-09-12T17:33:57.336Z,7.47
2022-09-12T17:36:25.778Z,6.63
2022-09-12T17:38:54.325Z,6.63
2022-09-12T17:41:23.891Z,6.77
2022-09-12T17:43:56.563Z,7.37
2022-09-12T17:46:26.120Z,7.17
2022-09-12T17:48:54.989Z,9.20
2022-09-12T17:51:24.966Z,7.33
2022-09-12T17:53:59.060Z,7.00
2022-09-12T17:56:28.016Z,6.30
2022-09-12T17:58:57.912Z,7.30
2022-09-12T18:01:44.603Z,7.00
2022-09-12T18:04:12.596Z,7.00
2022-09-12T18:06:47.713Z,7.47
2022-09-12T18:09:17.702Z,6.63
2022-09-12T18:11:45.825Z,6.40
2022-09-12T18:14:15.436Z,7.00
2022-09-12T18:16:43.556Z,6.30
2022-09-12T18:19:11.597Z,7.30
2022-09-12T18:21:39.891Z,7.00
2022-09-12T18:24:07.771Z,6.17
2022-09-12T18:26:35.879Z,6.60
2022-09-12T18:29:03.783Z,7.03
2022-09-12T18:31:33.100Z,7.17
2022-09-12T18:34:01.435Z,7.20
2022-09-12T18:36:30.081Z,7.07
2022-09-12T18:38:59.274Z,6.37
2022-09-12T18:41:28.994Z,6.80
2022-09-12T18:43:57.921Z,6.53
2022-09-12T18:46:26.860Z,8.47
2022-09-12T18:48:58.443Z,6.00
2022-09-12T18:51:31.326Z,6.97
2022-09-12T18:54:01.463Z,6.20
2022-09-12T18:56:32.932Z,8.37
2022-09-12T18:59:01.769Z,6.17
2022-09-12T19:01:31.173Z,6.57
2022-09-12T19:04:04.662Z,6.23
2022-09-12T19:06:35.396Z,6.50
2022-09-12T19:09:07.607Z,6.20
2022-09-12T19:11:38.241Z,6.20
2022-09-12T19:14:07.276Z,6.17
2022-09-12T19:16:36.079Z,11.83
2022-09-12T19:19:06.294Z,6.17
2022-09-12T19:21:35.345Z,5.67
2022-09-12T19:24:06.993Z,6.13
2022-09-12T19:26:35.776Z,5.33
2022-09-12T19:29:03.691Z,6.00
2022-09-12T19:31:32.442Z,5.70
2022-09-12T19:34:01.860Z,5.80
2022-09-12T19:36:49.121Z,5.50
2022-09-12T19:39:17.655Z,5.10
2022-09-12T19:41:46.103Z,5.90
2022-09-12T19:44:14.076Z,6.03
2022-09-12T19:46:42.195Z,5.83
2022-09-12T19:49:12.010Z,6.07
2022-09-12T19:51:41.680Z,5.10
2022-09-12T19:54:09.657Z,5.60
2022-09-12T19:56:37.573Z,5.47
2022-09-12T19:59:05.443Z,5.87
2022-09-12T20:01:34.721Z,5.60
2022-09-12T20:04:03.129Z,5.33
2022-09-12T20:06:31.185Z,5.07
2022-09-12T20:09:00.406Z,5.27
2022-09-12T20:11:28.277Z,5.50
2022-09-12T20:13:56.115Z,5.57
2022-09-12T20:16:28.468Z,5.43
2022-09-12T20:18:58.928Z,5.60
2022-09-12T20:21:31.718Z,5.30
2022-09-12T20:24:06.531Z,5.27
2022-09-12T20:26:35.053Z,5.37
2022-09-12T20:29:03.314Z,5.00
2022-09-12T20:31:31.982Z,5.10
2022-09-12T20:34:00.491Z,4.97
2022-09-12T20:36:28.834Z,4.77
2022-09-12T20:39:00.095Z,5.57
2022-09-12T20:41:32.176Z,4.87
2022-09-12T20:44:00.161Z,5.10
2022-09-12T20:46:29.404Z,4.87
2022-09-12T20:48:58.456Z,5.60
2022-09-12T20:51:26.806Z,4.73
2022-09-12T20:53:55.620Z,5.33
2022-09-12T20:56:24.304Z,5.10
2022-09-12T20:58:53.793Z,5.20
2022-09-12T21:01:22.103Z,5.53
2022-09-12T21:03:50.327Z,5.17
2022-09-12T21:06:19.557Z,4.93
2022-09-12T21:08:48.609Z,5.37
2022-09-12T21:11:17.741Z,5.10
2022-09-12T21:13:45.862Z,5.50
2022-09-12T21:16:16.973Z,5.27
2022-09-12T21:18:45.672Z,5.20
2022-09-12T21:21:15.791Z,4.63
2022-09-12T21:23:43.720Z,5.37
2022-09-12T21:26:11.998Z,5.00
2022-09-12T21:28:40.007Z,5.13
2022-09-12T21:31:08.083Z,4.97
2022-09-12T21:33:37.582Z,4.87
2022-09-12T21:36:06.683Z,5.10
2022-09-12T21:38:35.217Z,4.63
2022-09-12T21:41:08.091Z,5.27
2022-09-12T21:43:36.651Z,4.70
2022-09-12T21:46:05.473Z,5.23
2022-09-12T21:48:33.841Z,4.93
2022-09-12T21:51:03.537Z,4.70
2022-09-12T21:53:32.103Z,5.23
2022-09-12T21:56:02.672Z,4.67
2022-09-12T21:58:30.599Z,5.60
2022-09-12T22:00:59.299Z,5.20
2022-09-12T22:03:27.291Z,5.30
2022-09-12T22:05:58.805Z,4.77
2022-09-12T22:08:28.573Z,4.83
2022-09-12T22:11:00.901Z,5.37
2022-09-12T22:13:32.480Z,5.10
2022-09-12T22:16:03.162Z,4.90
2022-09-12T22:18:33.373Z,5.37
2022-09-12T22:21:03.617Z,5.10
2022-09-12T22:23:50.457Z,5.00
2022-09-12T22:26:18.482Z,4.80
2022-09-12T22:28:47.506Z,5.30
2022-09-12T22:31:16.651Z,5.27
2022-09-12T22:33:45.466Z,5.00
2022-09-12T22:36:13.562Z,5.30
2022-09-12T22:38:42.846Z,4.90
2022-09-12T22:41:12.432Z,4.90
2022-09-12T22:43:40.923Z,5.13
2022-09-12T22:46:09.344Z,5.17
2022-09-12T22:48:37.793Z,5.00
2022-09-12T22:51:06.189Z,5.33
2022-09-12T22:53:34.603Z,4.87
2022-09-12T22:56:05.157Z,5.00
2022-09-12T22:58:33.276Z,4.80
2022-09-12T23:01:01.199Z,4.77
2022-09-12T23:03:29.107Z,5.00
2022-09-12T23:05:57.002Z,5.03
2022-09-12T23:08:27.376Z,5.13
2022-09-12T23:11:03.107Z,4.87
2022-09-12T23:13:31.065Z,5.07
2022-09-12T23:15:59.742Z,5.00
2022-09-12T23:18:28.224Z,4.90
2022-09-12T23:21:00.795Z,4.57
2022-09-12T23:23:29.199Z,4.87
2022-09-12T23:26:11.303Z,4.97
2022-09-12T23:28:40.324Z,4.40
2022-09-12T23:31:09.496Z,4.67
2022-09-12T23:33:37.952Z,4.67
2022-09-12T23:36:07.639Z,4.80
2022-09-12T23:38:36.614Z,5.10
2022-09-12T23:41:05.323Z,4.83
2022-09-12T23:43:35.135Z,5.20
2022-09-12T23:46:03.211Z,4.90
2022-09-12T23:48:31.599Z,4.50
2022-09-12T23:50:59.685Z,5.00
2022-09-12T23:53:28.408Z,4.83
2022-09-12T23:55:56.422Z,5.00
2022-09-12T23:58:24.897Z,5.37
